createdAt,value
2019-01-26T00:01:56.772Z,0.90
2019-01-26T00:04:24.398Z,0.90
2019-01-26T00:06:51.989Z,0.90
2019-01-26T00:09:19.586Z,1.00
2019-01-26T00:11:47.103Z,0.90
2019-01-26T00:14:14.552Z,1.00
2019-01-26T00:16:42.008Z,0.90
2019-01-26T00:19:09.519Z,0.90
2019-01-26T00:21:37.132Z,0.90
2019-01-26T00:24:04.764Z,0.90
2019-01-26T00:26:36.250Z,0.90
2019-01-26T00:29:02.206Z,0.90
2019-01-26T00:31:29.670Z,0.90
2019-01-26T00:33:57.199Z,1.00
2019-01-26T00:36:24.809Z,1.00
2019-01-26T00:38:53.022Z,0.90
2019-01-26T00:41:20.709Z,0.90
2019-01-26T00:43:48.755Z,1.00
2019-01-26T00:46:16.244Z,1.00
2019-01-26T00:48:43.723Z,0.90
2019-01-26T00:51:11.158Z,1.00
2019-01-26T00:53:38.803Z,0.90
2019-01-26T00:56:06.945Z,0.90
2019-01-26T00:58:34.310Z,1.00
2019-01-26T01:01:01.946Z,0.90
2019-01-26T01:03:29.521Z,1.00
2019-01-26T01:05:57.114Z,0.90
2019-01-26T01:08:24.665Z,0.90
2019-01-26T01:10:52.308Z,0.90
2019-01-26T01:13:20.636Z,1.00
2019-01-26T01:15:48.349Z,1.00
2019-01-26T01:18:16.009Z,1.00
2019-01-26T01:20:43.606Z,0.90
2019-01-26T01:23:11.126Z,1.00
2019-01-26T01:25:39.041Z,1.00
2019-01-26T01:28:06.979Z,1.00
2019-01-26T01:30:34.472Z,1.00
2019-01-26T01:33:01.992Z,1.00
2019-01-26T01:35:29.372Z,1.10
2019-01-26T01:37:56.911Z,1.10
2019-01-26T01:40:24.388Z,1.10
2019-01-26T01:42:52.896Z,1.00
2019-01-26T01:45:20.465Z,1.00
2019-01-26T01:47:48.175Z,1.10
2019-01-26T01:50:16.184Z,1.10
2019-01-26T01:52:43.782Z,1.20
2019-01-26T01:55:12.697Z,1.20
2019-01-26T01:57:40.111Z,1.20
2019-01-26T02:00:14.426Z,1.20
2019-01-26T02:02:42.414Z,1.20
2019-01-26T02:05:09.977Z,1.20
2019-01-26T02:07:37.858Z,1.20
2019-01-26T02:10:08.047Z,1.30
2019-01-26T02:12:35.503Z,1.30
2019-01-26T02:15:03.630Z,1.30
2019-01-26T02:17:31.063Z,1.30
2019-01-26T02:19:58.593Z,1.20
2019-01-26T02:22:26.059Z,1.20
2019-01-26T02:24:53.803Z,1.30
2019-01-26T02:27:21.206Z,1.30
2019-01-26T02:29:48.800Z,1.30
2019-01-26T02:32:16.359Z,1.30
2019-01-26T02:34:43.812Z,1.30
2019-01-26T02:37:11.305Z,1.30
2019-01-26T02:39:38.768Z,1.30
2019-01-26T02:42:06.318Z,1.40
2019-01-26T02:44:33.963Z,1.40
2019-01-26T02:47:01.470Z,1.40
2019-01-26T02:49:28.961Z,1.40
2019-01-26T02:51:56.382Z,1.40
2019-01-26T02:54:23.843Z,1.40
2019-01-26T02:56:51.605Z,1.40
2019-01-26T02:59:19.108Z,1.50
2019-01-26T03:01:46.562Z,1.50
2019-01-26T03:04:13.988Z,1.50
2019-01-26T03:06:41.435Z,1.50
2019-01-26T03:09:09.271Z,1.60
2019-01-26T03:11:36.680Z,1.50
2019-01-26T03:14:04.136Z,1.50
2019-01-26T03:16:32.543Z,1.60
2019-01-26T03:19:00.645Z,1.60
2019-01-26T03:21:28.383Z,1.60
2019-01-26T03:23:56.250Z,1.60
2019-01-26T03:26:23.675Z,1.50
2019-01-26T03:28:51.069Z,1.60
2019-01-26T03:31:18.929Z,1.60
2019-01-26T03:33:46.324Z,1.60
2019-01-26T03:36:13.791Z,1.60
2019-01-26T03:38:41.311Z,1.60
2019-01-26T03:41:08.820Z,1.60
2019-01-26T03:43:36.332Z,1.70
2019-01-26T03:46:04.296Z,1.70
2019-01-26T03:48:31.677Z,1.70
2019-01-26T03:50:59.310Z,1.60
2019-01-26T03:53:26.882Z,1.70
2019-01-26T03:55:54.335Z,1.70
2019-01-26T03:58:21.759Z,1.70
2019-01-26T04:00:49.254Z,1.70
2019-01-26T04:03:16.804Z,1.70
2019-01-26T04:05:44.418Z,1.70
2019-01-26T04:08:12.015Z,1.70
2019-01-26T04:10:39.545Z,1.70
2019-01-26T04:13:07.001Z,1.70
2019-01-26T04:15:34.657Z,1.80
2019-01-26T04:18:02.033Z,1.80
2019-01-26T04:20:29.640Z,1.80
2019-01-26T04:22:57.147Z,1.80
2019-01-26T04:25:24.736Z,1.80
2019-01-26T04:27:52.460Z,1.80
2019-01-26T04:30:21.853Z,1.80
2019-01-26T04:32:49.339Z,1.80
2019-01-26T04:35:16.865Z,1.80
2019-01-26T04:37:44.440Z,1.80
2019-01-26T04:40:14.114Z,1.80
2019-01-26T04:42:41.696Z,1.80
2019-01-26T04:45:11.951Z,1.80
2019-01-26T04:47:39.364Z,1.90
2019-01-26T04:50:08.640Z,1.80
2019-01-26T04:52:36.456Z,1.80
2019-01-26T04:55:04.538Z,1.80
2019-01-26T04:57:32.038Z,1.80
2019-01-26T04:59:59.705Z,1.80
2019-01-26T05:02:27.232Z,1.80
2019-01-26T05:04:54.739Z,1.80
2019-01-26T05:07:22.397Z,1.90
2019-01-26T05:09:49.973Z,1.80
2019-01-26T05:12:17.665Z,1.80
2019-01-26T05:15:04.730Z,1.80
2019-01-26T05:17:39.243Z,1.80
2019-01-26T05:20:02.112Z,1.80
2019-01-26T05:22:29.598Z,1.80
2019-01-26T05:24:57.013Z,1.80
2019-01-26T05:27:24.644Z,1.80
2019-01-26T05:29:52.152Z,1.70
2019-01-26T05:32:19.586Z,1.80
2019-01-26T05:34:46.983Z,1.80
2019-01-26T05:37:14.486Z,1.80
2019-01-26T05:39:41.918Z,1.80
2019-01-26T05:42:09.587Z,1.80
2019-01-26T05:44:37.112Z,1.80
2019-01-26T05:47:04.840Z,1.90
2019-01-26T05:49:32.366Z,1.90
2019-01-26T05:52:00.243Z,1.90
2019-01-26T05:54:27.860Z,1.90
2019-01-26T05:56:55.473Z,1.90
2019-01-26T05:59:22.916Z,2.00
2019-01-26T06:01:50.421Z,1.90
2019-01-26T06:04:18.260Z,1.90
2019-01-26T06:06:45.808Z,1.90
2019-01-26T06:09:13.311Z,1.90
2019-01-26T06:11:40.905Z,1.90
2019-01-26T06:14:08.459Z,2.00
2019-01-26T06:16:35.952Z,2.10
2019-01-26T06:19:03.987Z,2.10
2019-01-26T06:21:31.460Z,2.10
2019-01-26T06:23:58.919Z,2.10
2019-01-26T06:26:26.338Z,2.20
2019-01-26T06:28:53.855Z,2.20
2019-01-26T06:31:21.686Z,2.10
2019-01-26T06:33:49.101Z,2.10
2019-01-26T06:36:16.839Z,2.10
2019-01-26T06:38:44.258Z,2.10
2019-01-26T06:41:11.730Z,2.10
2019-01-26T06:43:39.195Z,2.20
2019-01-26T06:46:06.779Z,2.20
2019-01-26T06:48:34.287Z,2.10
2019-01-26T06:51:01.921Z,2.20
2019-01-26T06:53:29.577Z,2.20
2019-01-26T06:55:57.134Z,2.20
2019-01-26T06:58:24.759Z,2.20
2019-01-26T07:00:52.499Z,2.20
2019-01-26T07:03:20.061Z,2.20
2019-01-26T07:05:52.001Z,2.20
2019-01-26T07:08:21.202Z,2.20
2019-01-26T07:10:49.080Z,2.20
2019-01-26T07:13:16.535Z,2.30
2019-01-26T07:15:44.133Z,2.30
2019-01-26T07:18:11.656Z,2.30
2019-01-26T07:20:39.209Z,2.30
2019-01-26T07:23:06.973Z,2.30
2019-01-26T07:25:35.073Z,2.20
2019-01-26T07:28:02.651Z,2.30
2019-01-26T07:30:30.469Z,2.30
2019-01-26T07:32:58.127Z,2.30
2019-01-26T07:35:25.890Z,2.30
2019-01-26T07:37:53.368Z,2.30
2019-01-26T07:40:20.929Z,2.30
2019-01-26T07:42:48.488Z,2.40
2019-01-26T07:45:16.800Z,2.40
2019-01-26T07:47:44.455Z,2.40
2019-01-26T07:50:16.439Z,2.40
2019-01-26T07:52:44.394Z,2.40
2019-01-26T07:55:12.124Z,2.40
2019-01-26T07:57:39.590Z,2.50
2019-01-26T08:00:11.060Z,2.50
2019-01-26T08:02:38.657Z,2.50
2019-01-26T08:05:08.310Z,2.50
2019-01-26T08:07:36.096Z,2.50
2019-01-26T08:10:10.739Z,2.50
2019-01-26T08:12:38.250Z,2.60
2019-01-26T08:15:08.006Z,2.60
2019-01-26T08:17:35.587Z,2.60
2019-01-26T08:20:04.062Z,2.60
2019-01-26T08:22:31.790Z,2.60
2019-01-26T08:24:59.480Z,2.60
2019-01-26T08:27:28.110Z,2.60
2019-01-26T08:29:55.571Z,2.60
2019-01-26T08:32:23.075Z,2.60
2019-01-26T08:34:50.633Z,2.70
2019-01-26T08:37:18.734Z,2.70
2019-01-26T08:39:46.230Z,2.70
2019-01-26T08:42:13.707Z,2.70
2019-01-26T08:44:41.349Z,2.80
2019-01-26T08:47:08.939Z,2.80
2019-01-26T08:49:36.580Z,2.70
2019-01-26T08:52:04.677Z,2.80
2019-01-26T08:54:32.329Z,2.80
2019-01-26T08:57:00.252Z,2.80
2019-01-26T08:59:27.922Z,2.80
2019-01-26T09:02:12.055Z,2.80
2019-01-26T09:04:39.772Z,2.90
2019-01-26T09:07:08.714Z,3.00
2019-01-26T09:09:36.421Z,3.00
2019-01-26T09:12:03.991Z,3.00
2019-01-26T09:14:31.641Z,3.00
2019-01-26T09:16:59.235Z,3.00
2019-01-26T09:19:27.115Z,3.10
2019-01-26T09:21:54.906Z,3.00
2019-01-26T09:24:22.662Z,3.10
2019-01-26T09:26:50.378Z,3.00
2019-01-26T09:29:18.640Z,3.00
2019-01-26T09:31:46.156Z,3.10
2019-01-26T09:34:14.053Z,3.10
2019-01-26T09:36:41.757Z,3.20
2019-01-26T09:39:10.335Z,3.20
2019-01-26T10:25:48.551Z,24.60
2019-01-26T10:28:12.295Z,23.20
2019-01-26T10:31:26.276Z,19.20
2019-01-26T10:33:54.933Z,11.90
2019-01-26T10:36:35.449Z,8.50
2019-01-26T10:39:14.987Z,6.80
2019-01-26T10:42:05.667Z,5.90
2019-01-26T10:44:35.696Z,5.40
2019-01-26T10:47:04.186Z,4.70
2019-01-26T10:49:32.450Z,4.40
2019-01-26T10:52:00.756Z,4.30
2019-01-26T10:54:28.865Z,4.20
2019-01-26T10:56:57.186Z,4.10
2019-01-26T10:59:25.411Z,4.10
2019-01-26T11:01:53.729Z,4.20
2019-01-26T11:04:22.202Z,4.30
2019-01-26T11:06:51.138Z,4.20
2019-01-26T11:09:19.825Z,4.30
2019-01-26T11:11:49.361Z,4.30
2019-01-26T11:14:17.521Z,4.40
2019-01-26T11:16:46.006Z,4.40
2019-01-26T11:19:14.207Z,4.30
2019-01-26T11:21:42.443Z,4.30
2019-01-26T11:24:10.556Z,4.30
2019-01-26T11:26:38.759Z,4.30
2019-01-26T11:29:07.298Z,4.30
2019-01-26T11:31:36.030Z,4.20
2019-01-26T11:34:04.865Z,4.40
2019-01-26T11:36:33.043Z,4.30
2019-01-26T11:39:01.154Z,4.40
2019-01-26T11:41:29.311Z,4.30
2019-01-26T11:43:57.691Z,4.30
2019-01-26T11:46:35.857Z,4.30
2019-01-26T11:49:04.561Z,4.40
2019-01-26T11:51:38.028Z,4.40
2019-01-26T11:54:06.297Z,4.40
2019-01-26T11:56:39.509Z,4.40
2019-01-26T11:59:07.714Z,4.50
2019-01-26T12:01:55.835Z,4.30
2019-01-26T12:04:39.101Z,4.20
2019-01-26T12:07:10.056Z,4.30
2019-01-26T12:09:38.273Z,4.40
2019-01-26T12:12:06.356Z,4.40
2019-01-26T12:14:34.469Z,4.40
2019-01-26T12:17:02.567Z,4.40
2019-01-26T12:19:30.548Z,4.30
2019-01-26T12:21:58.588Z,4.40
2019-01-26T12:24:26.834Z,4.20
2019-01-26T12:26:55.124Z,4.40
2019-01-26T12:29:23.300Z,4.40
2019-01-26T12:31:52.321Z,4.40
2019-01-26T12:34:23.400Z,4.30
2019-01-26T12:36:52.647Z,4.30
2019-01-26T12:39:20.875Z,4.40
2019-01-26T12:41:48.976Z,4.40
2019-01-26T12:44:17.110Z,4.40
2019-01-26T12:46:45.577Z,4.40
2019-01-26T12:49:13.745Z,4.30
2019-01-26T12:51:41.802Z,4.40
2019-01-26T12:54:09.938Z,4.40
2019-01-26T12:56:38.109Z,4.60
2019-01-26T12:59:06.594Z,4.50
2019-01-26T13:01:34.854Z,4.50
2019-01-26T13:04:04.384Z,4.50
2019-01-26T13:06:32.481Z,4.50
2019-01-26T13:09:00.621Z,4.60
2019-01-26T13:11:29.905Z,4.60
2019-01-26T13:13:58.166Z,4.70
2019-01-26T13:16:26.590Z,4.70
2019-01-26T13:18:55.353Z,4.70
2019-01-26T13:21:23.615Z,4.60
2019-01-26T13:23:51.704Z,4.60
2019-01-26T13:26:20.001Z,4.70
2019-01-26T13:28:48.790Z,4.80
2019-01-26T13:31:17.050Z,4.70
2019-01-26T13:33:45.401Z,4.80
2019-01-26T13:36:13.408Z,4.80
2019-01-26T13:38:41.728Z,4.90
2019-01-26T13:41:10.266Z,4.80
2019-01-26T13:43:38.645Z,4.90
2019-01-26T13:46:06.924Z,4.80
2019-01-26T13:48:35.033Z,4.90
2019-01-26T13:51:03.104Z,4.90
2019-01-26T13:53:31.766Z,4.90
2019-01-26T13:56:00.918Z,4.90
2019-01-26T13:58:29.168Z,4.70
2019-01-26T14:00:57.532Z,4.80
2019-01-26T14:03:25.943Z,4.70
2019-01-26T14:05:54.200Z,4.80
2019-01-26T14:08:22.477Z,4.80
2019-01-26T14:10:51.108Z,4.80
2019-01-26T14:13:19.183Z,4.90
2019-01-26T14:15:50.866Z,4.90
2019-01-26T14:18:18.997Z,4.80
2019-01-26T14:20:47.058Z,4.70
2019-01-26T14:23:15.489Z,4.70
2019-01-26T14:25:43.608Z,4.90
2019-01-26T14:28:11.846Z,4.80
2019-01-26T14:30:46.711Z,4.80
2019-01-26T14:33:15.219Z,4.90
2019-01-26T14:35:44.890Z,4.90
2019-01-26T14:38:14.324Z,4.80
2019-01-26T14:40:42.908Z,4.80
2019-01-26T14:43:11.317Z,4.80
2019-01-26T14:45:40.253Z,4.70
2019-01-26T14:48:08.928Z,4.80
2019-01-26T14:50:37.119Z,4.80
2019-01-26T14:53:05.377Z,4.80
2019-01-26T14:55:33.815Z,4.70
2019-01-26T14:58:02.287Z,4.70
2019-01-26T15:00:31.817Z,4.70
2019-01-26T15:02:59.809Z,4.60
2019-01-26T15:05:28.246Z,4.60
2019-01-26T15:07:57.390Z,4.70
2019-01-26T15:10:25.558Z,4.70
2019-01-26T15:12:53.695Z,4.60
2019-01-26T15:15:22.433Z,4.70
2019-01-26T15:17:50.515Z,4.70
2019-01-26T15:20:25.583Z,4.60
2019-01-26T15:22:54.130Z,4.60
2019-01-26T15:25:22.379Z,4.60
2019-01-26T15:27:50.347Z,4.40
2019-01-26T15:30:22.318Z,4.60
2019-01-26T15:32:50.306Z,4.60
2019-01-26T15:35:18.462Z,4.70
2019-01-26T15:37:46.596Z,4.80
2019-01-26T15:40:15.033Z,4.70
2019-01-26T15:42:43.566Z,4.60
2019-01-26T15:45:16.631Z,4.70
2019-01-26T15:47:44.886Z,4.70
2019-01-26T15:50:13.442Z,4.70
2019-01-26T15:52:42.244Z,4.70
2019-01-26T15:55:14.831Z,4.70
2019-01-26T15:57:43.280Z,4.70
2019-01-26T16:00:19.449Z,4.60
2019-01-26T16:02:47.596Z,4.60
2019-01-26T16:05:15.663Z,4.60
2019-01-26T16:07:44.732Z,4.60
2019-01-26T16:10:16.232Z,4.60
2019-01-26T16:12:44.389Z,4.60
2019-01-26T16:15:15.881Z,4.50
2019-01-26T16:17:44.952Z,4.60
2019-01-26T16:20:20.071Z,4.60
2019-01-26T16:22:43.960Z,4.50
2019-01-26T16:25:12.255Z,4.60
2019-01-26T16:27:40.582Z,4.50
2019-01-26T16:30:16.035Z,4.50
2019-01-26T16:32:44.332Z,4.60
2019-01-26T16:35:13.866Z,4.70
2019-01-26T16:37:41.925Z,4.60
2019-01-26T16:40:14.144Z,4.60
2019-01-26T16:42:42.257Z,4.60
2019-01-26T16:45:15.302Z,4.60
2019-01-26T16:47:43.777Z,4.60
2019-01-26T16:50:16.943Z,4.60
2019-01-26T16:52:45.083Z,4.60
2019-01-26T16:55:13.821Z,4.70
2019-01-26T16:57:42.102Z,4.70
2019-01-26T17:00:15.771Z,4.70
2019-01-26T17:02:43.982Z,4.60
2019-01-26T17:05:12.791Z,4.70
2019-01-26T17:07:40.816Z,4.70
2019-01-26T17:10:12.337Z,4.70
2019-01-26T17:12:40.511Z,4.70
2019-01-26T17:15:09.586Z,4.70
2019-01-26T17:17:37.812Z,4.70
2019-01-26T17:20:20.237Z,4.70
2019-01-26T17:22:48.294Z,4.70
2019-01-26T17:25:16.772Z,4.70
2019-01-26T17:27:46.289Z,4.70
2019-01-26T17:30:18.286Z,4.80
2019-01-26T17:32:46.495Z,4.90
2019-01-26T17:35:14.648Z,4.80
2019-01-26T17:37:43.051Z,4.80
2019-01-26T17:40:19.002Z,4.90
2019-01-26T17:42:47.400Z,4.90
2019-01-26T17:45:16.649Z,4.90
2019-01-26T17:47:45.179Z,4.90
2019-01-26T17:50:16.994Z,4.90
2019-01-26T17:52:45.278Z,5.00
2019-01-26T17:55:14.621Z,5.00
2019-01-26T17:57:43.175Z,5.00
2019-01-26T18:00:16.511Z,4.90
2019-01-26T18:02:44.779Z,4.90
2019-01-26T18:05:12.886Z,4.90
2019-01-26T18:07:41.334Z,4.90
2019-01-26T18:10:13.448Z,4.90
2019-01-26T18:12:41.654Z,5.00
2019-01-26T18:15:11.865Z,5.00
2019-01-26T18:17:40.307Z,5.00
2019-01-26T18:20:13.697Z,4.90
2019-01-26T18:22:41.924Z,5.00
2019-01-26T18:25:10.310Z,5.00
2019-01-26T18:27:38.402Z,5.10
2019-01-26T18:30:09.308Z,5.00
2019-01-26T18:32:37.548Z,5.00
2019-01-26T18:35:07.231Z,5.00
2019-01-26T18:37:35.520Z,5.00
2019-01-26T18:40:05.822Z,5.00
2019-01-26T18:42:33.816Z,4.90
2019-01-26T18:45:01.859Z,5.00
2019-01-26T18:47:30.329Z,5.00
2019-01-26T18:49:58.622Z,5.00
2019-01-26T18:52:26.918Z,5.10
2019-01-26T18:54:55.368Z,5.10
2019-01-26T18:57:23.660Z,5.00
2019-01-26T18:59:51.699Z,5.00
2019-01-26T19:02:20.940Z,5.10
2019-01-26T19:04:55.660Z,5.10
2019-01-26T19:07:23.825Z,5.10
2019-01-26T19:09:52.023Z,5.10
2019-01-26T19:12:20.259Z,5.00
2019-01-26T19:14:48.455Z,5.10
2019-01-26T19:17:16.499Z,5.20
2019-01-26T19:19:44.976Z,5.20
2019-01-26T19:22:13.107Z,5.10
2019-01-26T19:24:41.311Z,5.00
2019-01-26T19:27:09.583Z,5.10
2019-01-26T19:29:37.692Z,5.00
2019-01-26T19:32:06.576Z,5.10
2019-01-26T19:34:35.528Z,5.10
2019-01-26T19:37:09.253Z,5.10
2019-01-26T19:39:34.200Z,5.20
2019-01-26T19:42:02.372Z,5.10
2019-01-26T19:44:30.620Z,5.10
2019-01-26T19:46:59.866Z,5.10
2019-01-26T19:49:28.025Z,5.10
2019-01-26T19:51:56.503Z,5.10
2019-01-26T19:54:24.658Z,5.20
2019-01-26T19:56:54.518Z,5.20
2019-01-26T19:59:22.693Z,5.20
2019-01-26T20:01:52.160Z,5.10
2019-01-26T20:04:20.927Z,5.20
2019-01-26T20:06:50.069Z,5.10
2019-01-26T20:09:18.634Z,5.20
2019-01-26T20:11:46.882Z,5.10
2019-01-26T20:14:18.040Z,5.10
2019-01-26T20:16:46.685Z,5.00
2019-01-26T20:19:15.163Z,5.10
2019-01-26T20:21:43.747Z,5.20
2019-01-26T20:24:13.664Z,5.10
2019-01-26T20:26:41.830Z,5.10
2019-01-26T20:29:10.296Z,5.10
2019-01-26T20:31:38.595Z,5.20
2019-01-26T20:34:06.882Z,5.20
2019-01-26T20:36:35.083Z,5.10
2019-01-26T20:39:07.019Z,5.10
2019-01-26T20:41:35.383Z,5.10
2019-01-26T20:44:05.069Z,5.00
2019-01-26T20:46:33.339Z,5.10
2019-01-26T20:49:01.710Z,5.10
2019-01-26T20:51:29.878Z,5.10
2019-01-26T20:53:58.023Z,5.10
2019-01-26T20:56:26.337Z,5.10
2019-01-26T20:58:54.470Z,5.10
2019-01-26T21:01:24.313Z,5.10
2019-01-26T21:03:52.391Z,5.20
2019-01-26T21:06:21.645Z,5.20
2019-01-26T21:08:51.068Z,5.20
2019-01-26T21:11:19.321Z,5.30
2019-01-26T21:13:48.803Z,5.30
2019-01-26T21:16:17.018Z,5.20
2019-01-26T21:18:45.349Z,5.30
2019-01-26T21:21:14.182Z,5.30
2019-01-26T21:23:42.574Z,5.30
2019-01-26T21:26:11.462Z,5.30
2019-01-26T21:28:39.714Z,5.30
2019-01-26T21:31:07.854Z,5.30
2019-01-26T21:33:37.238Z,5.30
2019-01-26T21:36:05.983Z,5.30
2019-01-26T21:38:35.018Z,5.30
2019-01-26T21:41:03.177Z,5.40
2019-01-26T21:43:31.255Z,5.40
2019-01-26T21:45:59.502Z,5.40
2019-01-26T21:48:27.883Z,5.40
2019-01-26T21:50:56.073Z,5.40
2019-01-26T21:53:24.603Z,5.40
2019-01-26T21:55:52.729Z,5.40
2019-01-26T21:58:21.296Z,5.40
2019-01-26T22:00:49.636Z,5.40
2019-01-26T22:03:18.275Z,5.40
2019-01-26T22:05:46.633Z,5.40
2019-01-26T22:08:15.465Z,5.40
2019-01-26T22:10:44.304Z,5.40
2019-01-26T22:13:12.474Z,5.50
2019-01-26T22:15:40.681Z,5.40
2019-01-26T22:18:08.860Z,5.50
2019-01-26T22:20:36.880Z,5.60
2019-01-26T22:23:05.519Z,5.50
2019-01-26T22:25:33.631Z,5.60
2019-01-26T22:28:03.099Z,5.60
2019-01-26T22:30:34.140Z,5.70
2019-01-26T22:33:02.258Z,5.70
2019-01-26T22:35:30.454Z,5.70
2019-01-26T22:37:58.956Z,5.70
2019-01-26T22:40:35.824Z,5.70
2019-01-26T22:43:04.536Z,5.70
2019-01-26T22:45:32.961Z,5.70
2019-01-26T22:48:01.154Z,5.70
2019-01-26T22:50:32.468Z,5.70
2019-01-26T22:53:00.792Z,5.70
2019-01-26T22:55:30.545Z,5.70
2019-01-26T22:57:59.170Z,5.70
2019-01-26T23:00:58.440Z,5.70
2019-01-26T23:04:26.491Z,5.80
2019-01-26T23:07:33.174Z,5.80
2019-01-26T23:10:48.511Z,5.80
2019-01-26T23:13:53.469Z,5.80
2019-01-26T23:17:41.369Z,5.80
2019-01-26T23:20:50.445Z,5.80
2019-01-26T23:24:12.194Z,5.80
2019-01-26T23:27:12.583Z,5.90
2019-01-26T23:30:48.764Z,5.90
2019-01-26T23:33:16.806Z,5.90
2019-01-26T23:35:44.879Z,5.80
2019-01-26T23:38:12.860Z,5.90
2019-01-26T23:40:41.504Z,6.00
2019-01-26T23:43:09.628Z,6.00
2019-01-26T23:45:38.637Z,5.90
2019-01-26T23:48:06.711Z,6.00
2019-01-26T23:50:34.875Z,5.90
2019-01-26T23:53:03.156Z,5.90
2019-01-26T23:55:31.270Z,5.80
2019-01-26T23:57:59.493Z,5.80
